sensor_id;sensor_type;location;lat;lon;timestamp;P1;durP1;ratioP1;P2;durP2;ratioP2
26038;SDS011;13815;52.374;4.882;2022-07-19T00:00:03;35.47;;;24.42;;
26038;SDS011;13815;52.374;4.882;2022-07-19T00:02:31;36.70;;;24.60;;
26038;SDS011;13815;52.374;4.882;2022-07-19T00:04:57;36.00;;;24.65;;
26038;SDS011;13815;52.374;4.882;2022-07-19T00:07:22;35.72;;;24.35;;
26038;SDS011;13815;52.374;4.882;2022-07-19T00:09:48;36.25;;;24.67;;
26038;SDS011;13815;52.374;4.882;2022-07-19T00:12:13;35.72;;;24.70;;
26038;SDS011;13815;52.374;4.882;2022-07-19T00:14:39;35.38;;;24.70;;
26038;SDS011;13815;52.374;4.882;2022-07-19T00:17:04;35.17;;;24.42;;
26038;SDS011;13815;52.374;4.882;2022-07-19T00:19:30;35.55;;;25.10;;
26038;SDS011;13815;52.374;4.882;2022-07-19T00:21:55;35.75;;;25.45;;
26038;SDS011;13815;52.374;4.882;2022-07-19T00:24:20;34.92;;;25.38;;
26038;SDS011;13815;52.374;4.882;2022-07-19T00:26:46;36.65;;;25.73;;
26038;SDS011;13815;52.374;4.882;2022-07-19T00:29:11;35.85;;;25.08;;
26038;SDS011;13815;52.374;4.882;2022-07-19T00:31:36;36.33;;;25.90;;
26038;SDS011;13815;52.374;4.882;2022-07-19T00:34:02;35.58;;;25.08;;
26038;SDS011;13815;52.374;4.882;2022-07-19T00:36:27;35.78;;;25.30;;
26038;SDS011;13815;52.374;4.882;2022-07-19T00:38:53;34.83;;;24.92;;
26038;SDS011;13815;52.374;4.882;2022-07-19T00:41:18;35.70;;;25.33;;
26038;SDS011;13815;52.374;4.882;2022-07-19T00:43:44;36.22;;;25.00;;
26038;SDS011;13815;52.374;4.882;2022-07-19T00:46:16;35.75;;;25.02;;
26038;SDS011;13815;52.374;4.882;2022-07-19T00:48:43;35.55;;;24.90;;
26038;SDS011;13815;52.374;4.882;2022-07-19T00:51:12;36.10;;;24.85;;
26038;SDS011;13815;52.374;4.882;2022-07-19T00:53:41;36.28;;;25.27;;
26038;SDS011;13815;52.374;4.882;2022-07-19T00:56:07;35.35;;;25.33;;
26038;SDS011;13815;52.374;4.882;2022-07-19T00:58:34;35.17;;;25.38;;
26038;SDS011;13815;52.374;4.882;2022-07-19T01:01:00;35.05;;;24.83;;
26038;SDS011;13815;52.374;4.882;2022-07-19T01:03:26;34.35;;;24.20;;
26038;SDS011;13815;52.374;4.882;2022-07-19T01:05:52;35.42;;;25.27;;
26038;SDS011;13815;52.374;4.882;2022-07-19T01:08:18;35.58;;;24.35;;
26038;SDS011;13815;52.374;4.882;2022-07-19T01:10:43;35.15;;;25.27;;
26038;SDS011;13815;52.374;4.882;2022-07-19T01:13:09;34.35;;;25.13;;
26038;SDS011;13815;52.374;4.882;2022-07-19T01:15:37;35.35;;;25.38;;
26038;SDS011;13815;52.374;4.882;2022-07-19T01:18:02;35.20;;;25.85;;
26038;SDS011;13815;52.374;4.882;2022-07-19T01:20:28;35.10;;;25.98;;
26038;SDS011;13815;52.374;4.882;2022-07-19T01:22:53;35.33;;;25.63;;
26038;SDS011;13815;52.374;4.882;2022-07-19T01:25:19;36.10;;;25.40;;
26038;SDS011;13815;52.374;4.882;2022-07-19T01:27:47;35.65;;;25.30;;
26038;SDS011;13815;52.374;4.882;2022-07-19T01:30:15;35.10;;;24.30;;
26038;SDS011;13815;52.374;4.882;2022-07-19T01:32:42;36.67;;;25.58;;
26038;SDS011;13815;52.374;4.882;2022-07-19T01:35:08;34.95;;;24.48;;
26038;SDS011;13815;52.374;4.882;2022-07-19T01:37:34;34.63;;;24.50;;
26038;SDS011;13815;52.374;4.882;2022-07-19T01:40:01;35.70;;;25.25;;
26038;SDS011;13815;52.374;4.882;2022-07-19T01:42:27;35.08;;;25.25;;
26038;SDS011;13815;52.374;4.882;2022-07-19T01:44:53;35.17;;;25.55;;
26038;SDS011;13815;52.374;4.882;2022-07-19T01:47:18;36.22;;;25.73;;
26038;SDS011;13815;52.374;4.882;2022-07-19T01:49:44;35.65;;;25.60;;
26038;SDS011;13815;52.374;4.882;2022-07-19T01:52:09;36.08;;;25.67;;
26038;SDS011;13815;52.374;4.882;2022-07-19T01:54:34;36.83;;;25.73;;
26038;SDS011;13815;52.374;4.882;2022-07-19T01:57:00;36.30;;;25.65;;
26038;SDS011;13815;52.374;4.882;2022-07-19T01:59:25;34.53;;;24.20;;
26038;SDS011;13815;52.374;4.882;2022-07-19T02:01:51;34.72;;;24.27;;
26038;SDS011;13815;52.374;4.882;2022-07-19T02:04:16;35.40;;;24.52;;
26038;SDS011;13815;52.374;4.882;2022-07-19T02:06:41;35.00;;;25.35;;
26038;SDS011;13815;52.374;4.882;2022-07-19T02:09:07;35.17;;;24.90;;
26038;SDS011;13815;52.374;4.882;2022-07-19T02:11:32;34.97;;;24.48;;
26038;SDS011;13815;52.374;4.882;2022-07-19T02:14:01;35.33;;;24.48;;
26038;SDS011;13815;52.374;4.882;2022-07-19T02:16:33;35.83;;;24.67;;
26038;SDS011;13815;52.374;4.882;2022-07-19T02:18:59;34.30;;;24.90;;
26038;SDS011;13815;52.374;4.882;2022-07-19T02:21:25;35.75;;;24.70;;
26038;SDS011;13815;52.374;4.882;2022-07-19T02:23:50;34.33;;;24.52;;
26038;SDS011;13815;52.374;4.882;2022-07-19T02:26:16;34.63;;;24.65;;
26038;SDS011;13815;52.374;4.882;2022-07-19T02:28:41;34.75;;;24.75;;
26038;SDS011;13815;52.374;4.882;2022-07-19T02:31:06;34.75;;;24.60;;
26038;SDS011;13815;52.374;4.882;2022-07-19T02:33:32;35.55;;;24.75;;
26038;SDS011;13815;52.374;4.882;2022-07-19T02:35:58;36.00;;;25.02;;
26038;SDS011;13815;52.374;4.882;2022-07-19T02:38:23;36.20;;;25.20;;
26038;SDS011;13815;52.374;4.882;2022-07-19T02:40:48;35.65;;;25.25;;
26038;SDS011;13815;52.374;4.882;2022-07-19T02:43:14;34.45;;;24.83;;
26038;SDS011;13815;52.374;4.882;2022-07-19T02:45:39;34.78;;;24.90;;
26038;SDS011;13815;52.374;4.882;2022-07-19T02:48:05;34.97;;;24.90;;
26038;SDS011;13815;52.374;4.882;2022-07-19T02:50:31;35.13;;;24.52;;
26038;SDS011;13815;52.374;4.882;2022-07-19T02:52:56;34.45;;;24.25;;
26038;SDS011;13815;52.374;4.882;2022-07-19T02:55:22;34.65;;;24.40;;
26038;SDS011;13815;52.374;4.882;2022-07-19T02:57:47;35.60;;;24.90;;
26038;SDS011;13815;52.374;4.882;2022-07-19T03:00:13;33.45;;;23.83;;
26038;SDS011;13815;52.374;4.882;2022-07-19T03:02:39;33.90;;;24.27;;
26038;SDS011;13815;52.374;4.882;2022-07-19T03:05:04;33.65;;;24.15;;
26038;SDS011;13815;52.374;4.882;2022-07-19T03:07:31;33.45;;;24.02;;
26038;SDS011;13815;52.374;4.882;2022-07-19T03:09:56;33.75;;;23.90;;
26038;SDS011;13815;52.374;4.882;2022-07-19T03:12:22;33.75;;;24.20;;
26038;SDS011;13815;52.374;4.882;2022-07-19T03:14:47;36.25;;;24.23;;
26038;SDS011;13815;52.374;4.882;2022-07-19T03:17:13;34.45;;;23.95;;
26038;SDS011;13815;52.374;4.882;2022-07-19T03:19:38;35.00;;;24.33;;
26038;SDS011;13815;52.374;4.882;2022-07-19T03:22:04;33.95;;;23.75;;
26038;SDS011;13815;52.374;4.882;2022-07-19T03:24:29;32.72;;;23.52;;
26038;SDS011;13815;52.374;4.882;2022-07-19T03:26:54;34.20;;;23.83;;
26038;SDS011;13815;52.374;4.882;2022-07-19T03:29:20;33.85;;;23.70;;
26038;SDS011;13815;52.374;4.882;2022-07-19T03:31:45;34.50;;;23.80;;
26038;SDS011;13815;52.374;4.882;2022-07-19T03:34:11;33.67;;;23.52;;
26038;SDS011;13815;52.374;4.882;2022-07-19T03:36:36;32.47;;;23.00;;
26038;SDS011;13815;52.374;4.882;2022-07-19T03:39:02;33.63;;;23.27;;
26038;SDS011;13815;52.374;4.882;2022-07-19T03:41:27;33.80;;;23.25;;
26038;SDS011;13815;52.374;4.882;2022-07-19T03:43:53;33.33;;;23.65;;
26038;SDS011;13815;52.374;4.882;2022-07-19T03:46:18;33.38;;;23.20;;
26038;SDS011;13815;52.374;4.882;2022-07-19T03:48:45;33.47;;;23.30;;
26038;SDS011;13815;52.374;4.882;2022-07-19T03:51:11;33.03;;;23.15;;
26038;SDS011;13815;52.374;4.882;2022-07-19T03:53:36;33.55;;;23.23;;
26038;SDS011;13815;52.374;4.882;2022-07-19T03:56:01;33.92;;;23.15;;
26038;SDS011;13815;52.374;4.882;2022-07-19T03:58:27;32.72;;;22.83;;
26038;SDS011;13815;52.374;4.882;2022-07-19T04:00:52;32.88;;;22.98;;
26038;SDS011;13815;52.374;4.882;2022-07-19T04:03:18;33.75;;;23.10;;
26038;SDS011;13815;52.374;4.882;2022-07-19T04:05:43;33.35;;;22.83;;
26038;SDS011;13815;52.374;4.882;2022-07-19T04:08:09;32.80;;;23.23;;
26038;SDS011;13815;52.374;4.882;2022-07-19T04:10:34;33.58;;;23.38;;
26038;SDS011;13815;52.374;4.882;2022-07-19T04:13:00;32.83;;;23.10;;
26038;SDS011;13815;52.374;4.882;2022-07-19T04:15:25;34.75;;;22.95;;
26038;SDS011;13815;52.374;4.882;2022-07-19T04:27:41;33.90;;;22.52;;
26038;SDS011;13815;52.374;4.882;2022-07-19T04:30:06;34.05;;;22.75;;
26038;SDS011;13815;52.374;4.882;2022-07-19T04:32:35;36.05;;;23.25;;
26038;SDS011;13815;52.374;4.882;2022-07-19T04:35:10;34.08;;;22.95;;
26038;SDS011;13815;52.374;4.882;2022-07-19T04:37:45;34.47;;;22.98;;
26038;SDS011;13815;52.374;4.882;2022-07-19T04:43:09;34.83;;;23.13;;
26038;SDS011;13815;52.374;4.882;2022-07-19T04:45:34;35.10;;;23.15;;
26038;SDS011;13815;52.374;4.882;2022-07-19T04:48:04;34.60;;;22.90;;
26038;SDS011;13815;52.374;4.882;2022-07-19T04:50:30;35.58;;;23.30;;
26038;SDS011;13815;52.374;4.882;2022-07-19T04:52:55;35.60;;;23.58;;
26038;SDS011;13815;52.374;4.882;2022-07-19T04:55:21;34.60;;;23.63;;
26038;SDS011;13815;52.374;4.882;2022-07-19T04:57:46;34.83;;;23.45;;
26038;SDS011;13815;52.374;4.882;2022-07-19T05:00:12;34.42;;;23.70;;
26038;SDS011;13815;52.374;4.882;2022-07-19T05:02:37;35.25;;;24.30;;
26038;SDS011;13815;52.374;4.882;2022-07-19T05:05:03;34.50;;;24.00;;
26038;SDS011;13815;52.374;4.882;2022-07-19T05:07:32;33.75;;;24.02;;
26038;SDS011;13815;52.374;4.882;2022-07-19T05:09:58;34.05;;;24.00;;
26038;SDS011;13815;52.374;4.882;2022-07-19T05:12:23;32.97;;;23.02;;
26038;SDS011;13815;52.374;4.882;2022-07-19T05:14:49;32.78;;;22.88;;
26038;SDS011;13815;52.374;4.882;2022-07-19T05:17:23;32.85;;;23.13;;
26038;SDS011;13815;52.374;4.882;2022-07-19T05:19:49;33.15;;;23.25;;
26038;SDS011;13815;52.374;4.882;2022-07-19T05:22:14;32.95;;;23.40;;
26038;SDS011;13815;52.374;4.882;2022-07-19T05:24:40;33.20;;;23.10;;
26038;SDS011;13815;52.374;4.882;2022-07-19T05:27:05;33.67;;;23.58;;
26038;SDS011;13815;52.374;4.882;2022-07-19T05:29:30;34.17;;;23.80;;
26038;SDS011;13815;52.374;4.882;2022-07-19T05:31:56;33.50;;;24.08;;
26038;SDS011;13815;52.374;4.882;2022-07-19T05:34:21;33.13;;;24.13;;
26038;SDS011;13815;52.374;4.882;2022-07-19T05:36:47;34.08;;;24.45;;
26038;SDS011;13815;52.374;4.882;2022-07-19T05:39:12;34.13;;;24.50;;
26038;SDS011;13815;52.374;4.882;2022-07-19T05:41:40;33.45;;;23.90;;
26038;SDS011;13815;52.374;4.882;2022-07-19T05:44:05;33.58;;;23.85;;
26038;SDS011;13815;52.374;4.882;2022-07-19T05:46:31;30.30;;;23.00;;
26038;SDS011;13815;52.374;4.882;2022-07-19T05:48:56;30.55;;;23.35;;
26038;SDS011;13815;52.374;4.882;2022-07-19T05:51:22;30.67;;;23.70;;
26038;SDS011;13815;52.374;4.882;2022-07-19T05:53:47;30.65;;;23.52;;
26038;SDS011;13815;52.374;4.882;2022-07-19T05:56:12;30.77;;;23.52;;
26038;SDS011;13815;52.374;4.882;2022-07-19T05:58:38;29.27;;;22.88;;
26038;SDS011;13815;52.374;4.882;2022-07-19T06:01:04;28.85;;;22.23;;
26038;SDS011;13815;52.374;4.882;2022-07-19T06:03:49;28.67;;;22.27;;
26038;SDS011;13815;52.374;4.882;2022-07-19T06:06:22;28.17;;;22.20;;
26038;SDS011;13815;52.374;4.882;2022-07-19T06:08:48;28.63;;;22.30;;
26038;SDS011;13815;52.374;4.882;2022-07-19T06:11:15;28.30;;;22.35;;
26038;SDS011;13815;52.374;4.882;2022-07-19T06:13:41;28.05;;;22.25;;
26038;SDS011;13815;52.374;4.882;2022-07-19T06:16:07;27.92;;;21.98;;
26038;SDS011;13815;52.374;4.882;2022-07-19T06:18:33;28.70;;;22.15;;
26038;SDS011;13815;52.374;4.882;2022-07-19T06:21:06;28.17;;;22.17;;
26038;SDS011;13815;52.374;4.882;2022-07-19T06:23:33;27.65;;;21.92;;
26038;SDS011;13815;52.374;4.882;2022-07-19T06:26:05;29.60;;;22.55;;
26038;SDS011;13815;52.374;4.882;2022-07-19T06:28:30;29.52;;;22.10;;
26038;SDS011;13815;52.374;4.882;2022-07-19T06:30:56;29.45;;;22.33;;
26038;SDS011;13815;52.374;4.882;2022-07-19T06:33:22;29.38;;;22.08;;
26038;SDS011;13815;52.374;4.882;2022-07-19T06:35:47;30.00;;;22.58;;
26038;SDS011;13815;52.374;4.882;2022-07-19T06:38:13;29.95;;;22.50;;
26038;SDS011;13815;52.374;4.882;2022-07-19T06:40:38;30.02;;;22.77;;
26038;SDS011;13815;52.374;4.882;2022-07-19T06:43:04;30.20;;;22.67;;
26038;SDS011;13815;52.374;4.882;2022-07-19T06:45:29;30.10;;;22.73;;
26038;SDS011;13815;52.374;4.882;2022-07-19T06:47:54;28.98;;;22.52;;
26038;SDS011;13815;52.374;4.882;2022-07-19T06:50:21;28.80;;;22.65;;
26038;SDS011;13815;52.374;4.882;2022-07-19T06:52:47;27.70;;;22.45;;
26038;SDS011;13815;52.374;4.882;2022-07-19T06:55:12;29.05;;;22.45;;
26038;SDS011;13815;52.374;4.882;2022-07-19T06:57:38;29.05;;;22.45;;
26038;SDS011;13815;52.374;4.882;2022-07-19T07:00:05;31.77;;;23.30;;
26038;SDS011;13815;52.374;4.882;2022-07-19T07:02:32;31.10;;;22.48;;
26038;SDS011;13815;52.374;4.882;2022-07-19T07:04:58;32.20;;;23.02;;
26038;SDS011;13815;52.374;4.882;2022-07-19T07:07:23;30.90;;;23.58;;
26038;SDS011;13815;52.374;4.882;2022-07-19T07:09:48;29.80;;;23.23;;
26038;SDS011;13815;52.374;4.882;2022-07-19T07:12:14;30.70;;;23.00;;
26038;SDS011;13815;52.374;4.882;2022-07-19T07:14:39;30.00;;;22.90;;
26038;SDS011;13815;52.374;4.882;2022-07-19T07:17:04;29.63;;;22.92;;
26038;SDS011;13815;52.374;4.882;2022-07-19T07:19:30;30.05;;;23.50;;
26038;SDS011;13815;52.374;4.882;2022-07-19T07:21:55;30.15;;;22.98;;
26038;SDS011;13815;52.374;4.882;2022-07-19T07:24:22;30.88;;;23.30;;
26038;SDS011;13815;52.374;4.882;2022-07-19T07:26:48;31.08;;;22.80;;
26038;SDS011;13815;52.374;4.882;2022-07-19T07:29:13;31.05;;;22.92;;
26038;SDS011;13815;52.374;4.882;2022-07-19T07:31:39;30.02;;;23.15;;
26038;SDS011;13815;52.374;4.882;2022-07-19T07:34:04;29.25;;;23.35;;
26038;SDS011;13815;52.374;4.882;2022-07-19T07:36:29;29.27;;;23.15;;
26038;SDS011;13815;52.374;4.882;2022-07-19T07:38:55;30.00;;;23.48;;
26038;SDS011;13815;52.374;4.882;2022-07-19T07:41:20;29.50;;;23.15;;
26038;SDS011;13815;52.374;4.882;2022-07-19T07:43:45;29.80;;;22.85;;
26038;SDS011;13815;52.374;4.882;2022-07-19T07:46:11;28.95;;;23.05;;
26038;SDS011;13815;52.374;4.882;2022-07-19T07:48:36;29.67;;;23.63;;
26038;SDS011;13815;52.374;4.882;2022-07-19T07:51:04;29.45;;;23.30;;
26038;SDS011;13815;52.374;4.882;2022-07-19T07:53:30;29.60;;;23.48;;
26038;SDS011;13815;52.374;4.882;2022-07-19T07:55:55;28.52;;;22.95;;
26038;SDS011;13815;52.374;4.882;2022-07-19T07:58:21;29.77;;;23.90;;
26038;SDS011;13815;52.374;4.882;2022-07-19T08:00:46;29.05;;;22.80;;
26038;SDS011;13815;52.374;4.882;2022-07-19T08:03:11;29.92;;;23.35;;
26038;SDS011;13815;52.374;4.882;2022-07-19T08:05:37;28.85;;;22.83;;
26038;SDS011;13815;52.374;4.882;2022-07-19T08:08:05;28.83;;;22.63;;
26038;SDS011;13815;52.374;4.882;2022-07-19T08:10:30;28.88;;;22.50;;
26038;SDS011;13815;52.374;4.882;2022-07-19T08:12:59;29.55;;;23.15;;
26038;SDS011;13815;52.374;4.882;2022-07-19T08:15:24;28.85;;;22.70;;
26038;SDS011;13815;52.374;4.882;2022-07-19T08:17:49;31.23;;;23.25;;
26038;SDS011;13815;52.374;4.882;2022-07-19T08:20:15;31.20;;;23.67;;
26038;SDS011;13815;52.374;4.882;2022-07-19T08:22:40;31.70;;;23.60;;
26038;SDS011;13815;52.374;4.882;2022-07-19T08:25:06;31.63;;;24.65;;
26038;SDS011;13815;52.374;4.882;2022-07-19T08:27:32;32.28;;;25.20;;
26038;SDS011;13815;52.374;4.882;2022-07-19T08:29:58;32.15;;;25.15;;
26038;SDS011;13815;52.374;4.882;2022-07-19T08:32:24;31.23;;;24.67;;
26038;SDS011;13815;52.374;4.882;2022-07-19T08:34:50;31.30;;;24.35;;
26038;SDS011;13815;52.374;4.882;2022-07-19T08:37:15;31.85;;;24.85;;
26038;SDS011;13815;52.374;4.882;2022-07-19T08:39:40;32.40;;;25.23;;
26038;SDS011;13815;52.374;4.882;2022-07-19T08:42:06;32.25;;;24.95;;
26038;SDS011;13815;52.374;4.882;2022-07-19T08:44:31;32.42;;;25.38;;
26038;SDS011;13815;52.374;4.882;2022-07-19T08:47:00;32.05;;;25.52;;
26038;SDS011;13815;52.374;4.882;2022-07-19T08:49:26;31.80;;;24.80;;
26038;SDS011;13815;52.374;4.882;2022-07-19T08:51:51;32.42;;;25.75;;
26038;SDS011;13815;52.374;4.882;2022-07-19T08:54:17;33.20;;;26.17;;
26038;SDS011;13815;52.374;4.882;2022-07-19T08:56:42;32.33;;;25.67;;
26038;SDS011;13815;52.374;4.882;2022-07-19T08:59:26;31.90;;;24.70;;
26038;SDS011;13815;52.374;4.882;2022-07-19T09:01:52;30.98;;;23.45;;
26038;SDS011;13815;52.374;4.882;2022-07-19T09:04:18;31.35;;;24.48;;
26038;SDS011;13815;52.374;4.882;2022-07-19T09:06:48;30.73;;;23.35;;
26038;SDS011;13815;52.374;4.882;2022-07-19T09:09:16;31.70;;;24.60;;
26038;SDS011;13815;52.374;4.882;2022-07-19T09:12:02;31.90;;;25.08;;
26038;SDS011;13815;52.374;4.882;2022-07-19T09:14:32;32.80;;;25.27;;
26038;SDS011;13815;52.374;4.882;2022-07-19T09:17:11;32.85;;;25.63;;
26038;SDS011;13815;52.374;4.882;2022-07-19T09:19:45;32.80;;;25.52;;
26038;SDS011;13815;52.374;4.882;2022-07-19T09:22:16;32.03;;;24.83;;
26038;SDS011;13815;52.374;4.882;2022-07-19T09:24:45;33.00;;;25.02;;
26038;SDS011;13815;52.374;4.882;2022-07-19T09:27:15;31.95;;;24.85;;
26038;SDS011;13815;52.374;4.882;2022-07-19T09:29:43;32.90;;;24.92;;
26038;SDS011;13815;52.374;4.882;2022-07-19T09:34:57;31.65;;;24.65;;
26038;SDS011;13815;52.374;4.882;2022-07-19T09:37:27;31.30;;;25.13;;
26038;SDS011;13815;52.374;4.882;2022-07-19T09:39:54;31.80;;;24.77;;
26038;SDS011;13815;52.374;4.882;2022-07-19T09:42:21;31.52;;;24.35;;
26038;SDS011;13815;52.374;4.882;2022-07-19T09:45:05;32.58;;;25.25;;
26038;SDS011;13815;52.374;4.882;2022-07-19T09:47:36;32.33;;;24.92;;
26038;SDS011;13815;52.374;4.882;2022-07-19T09:50:04;32.13;;;24.63;;
26038;SDS011;13815;52.374;4.882;2022-07-19T09:52:34;32.45;;;24.90;;
26038;SDS011;13815;52.374;4.882;2022-07-19T09:55:02;31.38;;;23.80;;
26038;SDS011;13815;52.374;4.882;2022-07-19T09:57:28;32.42;;;24.70;;
26038;SDS011;13815;52.374;4.882;2022-07-19T09:59:59;32.05;;;25.30;;
26038;SDS011;13815;52.374;4.882;2022-07-19T10:02:26;32.13;;;25.33;;
26038;SDS011;13815;52.374;4.882;2022-07-19T10:04:52;32.45;;;25.20;;
26038;SDS011;13815;52.374;4.882;2022-07-19T10:07:18;31.45;;;24.55;;
26038;SDS011;13815;52.374;4.882;2022-07-19T10:09:43;31.05;;;24.80;;
26038;SDS011;13815;52.374;4.882;2022-07-19T10:12:10;32.13;;;25.88;;
26038;SDS011;13815;52.374;4.882;2022-07-19T10:14:36;31.38;;;25.05;;
26038;SDS011;13815;52.374;4.882;2022-07-19T10:17:51;31.52;;;25.52;;
26038;SDS011;13815;52.374;4.882;2022-07-19T10:19:52;30.80;;;24.20;;
26038;SDS011;13815;52.374;4.882;2022-07-19T10:22:21;31.33;;;24.42;;
26038;SDS011;13815;52.374;4.882;2022-07-19T10:24:54;31.08;;;24.60;;
26038;SDS011;13815;52.374;4.882;2022-07-19T10:32:36;31.02;;;25.33;;
26038;SDS011;13815;52.374;4.882;2022-07-19T10:35:19;31.38;;;24.75;;
26038;SDS011;13815;52.374;4.882;2022-07-19T10:37:55;30.73;;;24.45;;
26038;SDS011;13815;52.374;4.882;2022-07-19T10:41:21;32.08;;;25.48;;
26038;SDS011;13815;52.374;4.882;2022-07-19T10:48:21;31.70;;;25.40;;
26038;SDS011;13815;52.374;4.882;2022-07-19T10:51:06;32.33;;;25.92;;
26038;SDS011;13815;52.374;4.882;2022-07-19T10:56:15;31.83;;;25.30;;
26038;SDS011;13815;52.374;4.882;2022-07-19T10:58:53;31.63;;;24.88;;
26038;SDS011;13815;52.374;4.882;2022-07-19T11:01:22;32.13;;;24.95;;
26038;SDS011;13815;52.374;4.882;2022-07-19T11:03:50;31.80;;;25.05;;
26038;SDS011;13815;52.374;4.882;2022-07-19T11:06:34;32.17;;;25.70;;
26038;SDS011;13815;52.374;4.882;2022-07-19T11:08:59;30.40;;;24.60;;
26038;SDS011;13815;52.374;4.882;2022-07-19T11:11:25;30.55;;;25.00;;
26038;SDS011;13815;52.374;4.882;2022-07-19T11:13:57;30.67;;;24.67;;
26038;SDS011;13815;52.374;4.882;2022-07-19T11:16:28;29.75;;;24.15;;
26038;SDS011;13815;52.374;4.882;2022-07-19T11:19:05;29.25;;;24.40;;
26038;SDS011;13815;52.374;4.882;2022-07-19T11:21:33;30.35;;;24.95;;
26038;SDS011;13815;52.374;4.882;2022-07-19T11:24:00;30.13;;;24.50;;
26038;SDS011;13815;52.374;4.882;2022-07-19T11:26:28;29.70;;;23.88;;
26038;SDS011;13815;52.374;4.882;2022-07-19T11:29:05;29.35;;;25.00;;
26038;SDS011;13815;52.374;4.882;2022-07-19T11:31:34;28.60;;;23.95;;
26038;SDS011;13815;52.374;4.882;2022-07-19T11:48:00;27.77;;;24.55;;
26038;SDS011;13815;52.374;4.882;2022-07-19T12:20:19;28.70;;;24.23;;
26038;SDS011;13815;52.374;4.882;2022-07-19T12:22:47;28.23;;;24.27;;
26038;SDS011;13815;52.374;4.882;2022-07-19T12:25:34;29.27;;;24.00;;
26038;SDS011;13815;52.374;4.882;2022-07-19T12:28:01;29.75;;;24.58;;
26038;SDS011;13815;52.374;4.882;2022-07-19T12:30:27;30.42;;;24.75;;
26038;SDS011;13815;52.374;4.882;2022-07-19T12:32:53;29.70;;;24.60;;
26038;SDS011;13815;52.374;4.882;2022-07-19T12:35:39;29.00;;;24.48;;
26038;SDS011;13815;52.374;4.882;2022-07-19T12:38:11;29.42;;;24.58;;
26038;SDS011;13815;52.374;4.882;2022-07-19T12:40:38;29.70;;;24.80;;
26038;SDS011;13815;52.374;4.882;2022-07-19T12:43:09;29.05;;;24.75;;
26038;SDS011;13815;52.374;4.882;2022-07-19T12:45:41;29.27;;;25.08;;
26038;SDS011;13815;52.374;4.882;2022-07-19T12:48:12;29.40;;;25.30;;
26038;SDS011;13815;52.374;4.882;2022-07-19T12:50:42;29.30;;;24.93;;
26038;SDS011;13815;52.374;4.882;2022-07-19T12:53:13;29.60;;;24.52;;
26038;SDS011;13815;52.374;4.882;2022-07-19T12:55:40;28.58;;;24.05;;
26038;SDS011;13815;52.374;4.882;2022-07-19T13:01:20;31.90;;;25.38;;
26038;SDS011;13815;52.374;4.882;2022-07-19T13:10:22;31.80;;;24.83;;
26038;SDS011;13815;52.374;4.882;2022-07-19T13:16:03;28.92;;;23.45;;
26038;SDS011;13815;52.374;4.882;2022-07-19T13:18:41;30.45;;;25.08;;
26038;SDS011;13815;52.374;4.882;2022-07-19T13:21:07;31.05;;;25.58;;
26038;SDS011;13815;52.374;4.882;2022-07-19T13:23:32;30.73;;;25.40;;
26038;SDS011;13815;52.374;4.882;2022-07-19T13:29:13;30.95;;;25.00;;
26038;SDS011;13815;52.374;4.882;2022-07-19T13:34:18;30.13;;;25.33;;
26038;SDS011;13815;52.374;4.882;2022-07-19T13:36:44;30.10;;;25.10;;
26038;SDS011;13815;52.374;4.882;2022-07-19T13:39:10;28.83;;;24.17;;
26038;SDS011;13815;52.374;4.882;2022-07-19T13:44:51;29.75;;;25.08;;
26038;SDS011;13815;52.374;4.882;2022-07-19T13:47:18;30.85;;;25.88;;
26038;SDS011;13815;52.374;4.882;2022-07-19T13:49:43;30.38;;;25.15;;
26038;SDS011;13815;52.374;4.882;2022-07-19T13:52:08;30.98;;;24.55;;
26038;SDS011;13815;52.374;4.882;2022-07-19T13:54:34;31.35;;;25.38;;
26038;SDS011;13815;52.374;4.882;2022-07-19T13:56:59;30.88;;;25.05;;
26038;SDS011;13815;52.374;4.882;2022-07-19T13:59:25;30.60;;;24.60;;
26038;SDS011;13815;52.374;4.882;2022-07-19T14:01:51;29.88;;;23.88;;
26038;SDS011;13815;52.374;4.882;2022-07-19T14:04:16;30.48;;;23.73;;
26038;SDS011;13815;52.374;4.882;2022-07-19T14:06:42;30.43;;;24.13;;
26038;SDS011;13815;52.374;4.882;2022-07-19T14:09:07;30.60;;;24.33;;
26038;SDS011;13815;52.374;4.882;2022-07-19T14:11:33;29.67;;;24.02;;
26038;SDS011;13815;52.374;4.882;2022-07-19T14:13:59;29.73;;;24.35;;
26038;SDS011;13815;52.374;4.882;2022-07-19T14:16:25;30.55;;;24.75;;
26038;SDS011;13815;52.374;4.882;2022-07-19T14:18:51;32.53;;;24.90;;
26038;SDS011;13815;52.374;4.882;2022-07-19T14:21:17;29.67;;;24.17;;
26038;SDS011;13815;52.374;4.882;2022-07-19T14:23:42;30.73;;;25.17;;
26038;SDS011;13815;52.374;4.882;2022-07-19T14:26:08;32.50;;;25.30;;
26038;SDS011;13815;52.374;4.882;2022-07-19T14:28:33;31.25;;;24.75;;
26038;SDS011;13815;52.374;4.882;2022-07-19T14:30:58;31.07;;;24.53;;
26038;SDS011;13815;52.374;4.882;2022-07-19T14:33:24;30.20;;;24.52;;
26038;SDS011;13815;52.374;4.882;2022-07-19T14:35:51;30.90;;;25.08;;
26038;SDS011;13815;52.374;4.882;2022-07-19T14:38:16;30.88;;;24.63;;
26038;SDS011;13815;52.374;4.882;2022-07-19T14:40:41;33.10;;;25.88;;
26038;SDS011;13815;52.374;4.882;2022-07-19T14:43:08;31.75;;;25.30;;
26038;SDS011;13815;52.374;4.882;2022-07-19T14:45:33;30.73;;;24.73;;
26038;SDS011;13815;52.374;4.882;2022-07-19T14:47:59;31.40;;;25.52;;
26038;SDS011;13815;52.374;4.882;2022-07-19T14:50:24;31.33;;;25.13;;
26038;SDS011;13815;52.374;4.882;2022-07-19T14:52:50;31.08;;;25.25;;
26038;SDS011;13815;52.374;4.882;2022-07-19T14:55:15;30.95;;;25.05;;
26038;SDS011;13815;52.374;4.882;2022-07-19T14:57:41;30.83;;;24.70;;
26038;SDS011;13815;52.374;4.882;2022-07-19T15:00:07;33.38;;;25.70;;
26038;SDS011;13815;52.374;4.882;2022-07-19T15:02:34;32.22;;;24.95;;
26038;SDS011;13815;52.374;4.882;2022-07-19T15:05:00;32.72;;;25.33;;
26038;SDS011;13815;52.374;4.882;2022-07-19T15:07:25;31.85;;;25.15;;
26038;SDS011;13815;52.374;4.882;2022-07-19T15:09:51;31.95;;;24.92;;
26038;SDS011;13815;52.374;4.882;2022-07-19T15:12:17;31.08;;;24.63;;
26038;SDS011;13815;52.374;4.882;2022-07-19T15:14:43;30.20;;;24.42;;
26038;SDS011;13815;52.374;4.882;2022-07-19T15:17:08;29.38;;;24.33;;
26038;SDS011;13815;52.374;4.882;2022-07-19T15:19:34;29.63;;;23.65;;
26038;SDS011;13815;52.374;4.882;2022-07-19T15:21:59;31.20;;;24.77;;
26038;SDS011;13815;52.374;4.882;2022-07-19T15:24:25;30.60;;;24.30;;
26038;SDS011;13815;52.374;4.882;2022-07-19T15:26:50;30.02;;;24.33;;
26038;SDS011;13815;52.374;4.882;2022-07-19T15:29:16;31.15;;;24.65;;
26038;SDS011;13815;52.374;4.882;2022-07-19T15:31:41;30.50;;;24.52;;
26038;SDS011;13815;52.374;4.882;2022-07-19T15:34:07;30.35;;;24.45;;
26038;SDS011;13815;52.374;4.882;2022-07-19T15:36:32;29.38;;;24.23;;
26038;SDS011;13815;52.374;4.882;2022-07-19T15:38:58;29.75;;;23.85;;
26038;SDS011;13815;52.374;4.882;2022-07-19T15:41:27;29.73;;;23.55;;
26038;SDS011;13815;52.374;4.882;2022-07-19T15:43:52;29.75;;;23.83;;
26038;SDS011;13815;52.374;4.882;2022-07-19T15:46:21;29.05;;;23.58;;
26038;SDS011;13815;52.374;4.882;2022-07-19T15:48:46;31.92;;;24.75;;
26038;SDS011;13815;52.374;4.882;2022-07-19T15:51:11;30.25;;;24.00;;
26038;SDS011;13815;52.374;4.882;2022-07-19T15:53:37;30.25;;;23.98;;